Time;durP1;ratioP1;P1;durP2;ratioP2;P2;SDS_P1;SDS_P2;PMS_P1;PMS_P2;Temp;Humidity;BMP_temperature;BMP_pressure;BME280_temperature;BME280_humidity;BME280_pressure;Samples;Min_cycle;Max_cycle;Signal;HPM_P1;HPM_P2
2021/01/18 00:00:21;;;;;;;14.90;7.75;;;;;;;-0.19;94.68;97471.84;5017632;28;20040;-68
2021/01/18 00:02:47;;;;;;;11.00;6.57;;;;;;;0.04;94.26;97477.63;5021400;28;20045;-68
2021/01/18 00:05:12;;;;;;;9.27;5.70;;;;;;;0.20;94.14;97479.16;5017348;28;20042;-68
2021/01/18 00:07:51;;;;;;;9.63;5.53;;;;;;;0.18;93.90;97486.69;5019102;28;20384;-68
2021/01/18 00:10:21;;;;;;;8.05;4.80;;;;;;;0.15;93.46;97481.88;5016173;28;20143;-67
2021/01/18 00:12:49;;;;;;;9.82;5.75;;;;;;;0.12;93.37;97488.63;5022634;28;20196;-67
2021/01/18 00:15:16;;;;;;;9.73;6.10;;;;;;;-0.02;93.28;97479.56;5019329;28;20041;-67
2021/01/18 00:17:42;;;;;;;9.90;5.82;;;;;;;-0.13;94.18;97478.81;5021447;28;20037;-67
2021/01/18 00:20:10;;;;;;;10.73;5.93;;;;;;;-0.14;94.06;97473.72;5010626;28;20048;-67
2021/01/18 00:22:37;;;;;;;10.75;5.88;;;;;;;-0.23;94.60;97477.00;5021644;28;20049;-69
2021/01/18 00:25:08;;;;;;;13.95;8.15;;;;;;;-0.26;94.54;97485.63;5019800;28;20509;-63
2021/01/18 00:27:33;;;;;;;16.58;7.78;;;;;;;-0.28;94.66;97476.22;5016719;28;20085;-67
2021/01/18 00:29:58;;;;;;;14.10;7.60;;;;;;;-0.31;95.20;97474.88;5021458;28;20120;-68
2021/01/18 00:32:24;;;;;;;11.07;6.70;;;;;;;-0.30;95.21;97471.09;5012363;28;20049;-67
2021/01/18 00:34:49;;;;;;;11.80;6.85;;;;;;;-0.34;95.66;97464.66;5020210;28;20052;-69
2021/01/18 00:37:14;;;;;;;12.63;6.68;;;;;;;-0.33;95.70;97468.97;4996559;28;20041;-65
2021/01/18 00:39:43;;;;;;;13.13;7.55;;;;;;;-0.31;95.42;97476.75;5017559;28;20105;-68
2021/01/18 00:42:09;;;;;;;11.60;6.63;;;;;;;-0.33;95.52;97479.72;5017322;28;20054;-67
2021/01/18 00:44:35;;;;;;;10.45;6.53;;;;;;;-0.32;95.04;97467.09;5024003;28;20048;-65
2021/01/18 00:47:00;;;;;;;11.77;6.45;;;;;;;-0.31;95.45;97476.75;5017937;28;20041;-68
2021/01/18 00:49:25;;;;;;;10.38;6.43;;;;;;;-0.32;95.23;97473.28;5014773;28;20037;-67
2021/01/18 00:51:51;;;;;;;9.68;5.55;;;;;;;-0.34;95.32;97483.50;5018904;28;20037;-68
2021/01/18 00:54:16;;;;;;;10.88;6.45;;;;;;;-0.35;95.77;97481.09;5011614;28;20131;-67
2021/01/18 00:56:41;;;;;;;12.90;7.22;;;;;;;-0.39;95.32;97478.16;5016584;28;20065;-68
2021/01/18 00:59:07;;;;;;;9.50;6.30;;;;;;;-0.29;95.85;97479.97;5012280;28;20068;-66
2021/01/18 01:01:33;;;;;;;9.90;5.63;;;;;;;-0.26;95.52;97477.53;5012424;28;20042;-68
2021/01/18 01:03:58;;;;;;;9.20;5.63;;;;;;;-0.30;95.18;97476.50;5019879;28;20044;-68
2021/01/18 01:06:23;;;;;;;10.50;6.25;;;;;;;-0.33;95.30;97473.53;5010086;28;20037;-68
2021/01/18 01:08:49;;;;;;;13.68;6.78;;;;;;;-0.28;94.90;97478.91;5017933;28;20065;-69
2021/01/18 01:11:14;;;;;;;10.73;6.57;;;;;;;-0.26;95.06;97484.81;5017747;28;20038;-68
2021/01/18 01:13:40;;;;;;;12.52;5.68;;;;;;;-0.25;94.96;97473.78;5020972;28;20060;-68
2021/01/18 01:16:05;;;;;;;12.13;6.00;;;;;;;-0.18;95.04;97486.94;5016186;28;20045;-66
2021/01/18 01:18:31;;;;;;;10.95;6.20;;;;;;;-0.20;94.85;97472.94;5021758;28;20787;-68
2021/01/18 01:20:56;;;;;;;10.65;6.07;;;;;;;-0.10;94.70;97483.66;5020259;28;20104;-68
2021/01/18 01:23:21;;;;;;;12.57;6.72;;;;;;;-0.18;94.10;97484.25;5006691;28;20993;-67
2021/01/18 01:25:47;;;;;;;14.40;6.90;;;;;;;-0.30;95.02;97489.94;5015132;28;20422;-68
2021/01/18 01:28:13;;;;;;;13.43;7.32;;;;;;;-0.33;94.98;97490.50;4992442;28;20398;-67
2021/01/18 01:30:38;;;;;;;13.32;7.20;;;;;;;-0.35;95.04;97483.78;5003142;28;20486;-69
2021/01/18 01:33:04;;;;;;;11.38;6.80;;;;;;;-0.40;94.63;97493.50;5015033;28;20056;-62
2021/01/18 01:35:29;;;;;;;12.23;6.43;;;;;;;-0.41;95.25;97497.25;5017832;28;22088;-68
2021/01/18 01:37:56;;;;;;;14.27;7.13;;;;;;;-0.35;95.10;97497.25;5029499;28;20065;-69
2021/01/18 01:40:22;;;;;;;15.88;7.50;;;;;;;-0.35;95.68;97489.97;5007236;28;20045;-69
2021/01/18 01:42:48;;;;;;;14.57;7.45;;;;;;;-0.33;95.24;97487.00;5016307;28;20041;-68
2021/01/18 01:45:16;;;;;;;13.55;7.70;;;;;;;-0.31;95.31;97490.22;5013016;28;20037;-69
2021/01/18 01:47:49;;;;;;;16.20;7.43;;;;;;;-0.30;95.35;97489.94;5020994;28;20402;-69
2021/01/18 01:50:22;;;;;;;10.63;6.68;;;;;;;-0.26;95.37;97499.06;5016619;28;20103;-68
2021/01/18 01:53:14;;;;;;;17.10;7.10;;;;;;;-0.15;94.58;97496.34;5019092;28;20034;-68
2021/01/18 01:55:40;;;;;;;13.07;6.68;;;;;;;0.10;93.73;97496.19;5018567;28;20048;-69
2021/01/18 01:58:07;;;;;;;13.43;6.63;;;;;;;0.21;92.81;97501.50;5016903;28;20045;-65
2021/01/18 02:00:39;;;;;;;13.75;6.75;;;;;;;0.02;93.23;97498.66;5020519;28;20052;-70
2021/01/18 02:03:09;;;;;;;16.58;7.28;;;;;;;0.06;92.81;97497.03;5014814;28;20132;-63
2021/01/18 02:05:35;;;;;;;11.98;7.15;;;;;;;-0.01;93.25;97492.75;5020609;28;20045;-69
2021/01/18 02:08:03;;;;;;;11.23;6.90;;;;;;;-0.08;93.35;97503.03;5020457;28;20188;-70
2021/01/18 02:10:29;;;;;;;13.90;7.05;;;;;;;-0.05;93.73;97496.28;5018228;28;20080;-70
2021/01/18 02:12:58;;;;;;;23.42;7.43;;;;;;;0.00;93.71;97501.66;5019931;28;20084;-66
2021/01/18 02:15:37;;;;;;;12.35;6.60;;;;;;;0.02;93.34;97507.56;5015484;28;20050;-67
2021/01/18 02:18:12;;;;;;;13.93;7.05;;;;;;;0.05;93.72;97501.59;5016894;28;20050;-62
2021/01/18 02:20:55;;;;;;;14.75;7.40;;;;;;;0.01;93.25;97511.31;5020405;28;20100;-68
2021/01/18 02:23:43;;;;;;;15.40;7.68;;;;;;;-0.03;93.26;97503.00;5014838;28;20538;-70
2021/01/18 02:26:16;;;;;;;16.63;7.47;;;;;;;-0.14;94.12;97500.66;5014963;28;20398;-70
2021/01/18 02:29:21;;;;;;;18.70;7.63;;;;;;;-0.17;94.67;97498.50;5022085;28;20041;-70
2021/01/18 02:32:02;;;;;;;16.58;7.88;;;;;;;-0.14;94.26;97512.22;5022633;28;20037;-70
2021/01/18 02:34:46;;;;;;;17.85;8.13;;;;;;;-0.13;94.30;97515.72;5021729;28;20091;-70
2021/01/18 02:37:27;;;;;;;16.23;8.23;;;;;;;-0.11;94.45;97511.69;5017362;28;20159;-69
2021/01/18 02:40:22;;;;;;;16.65;8.15;;;;;;;0.10;93.79;97517.72;5004622;28;20033;-69
2021/01/18 02:42:51;;;;;;;15.70;7.95;;;;;;;0.04;93.96;97518.03;5023183;28;20045;-70
2021/01/18 02:45:21;;;;;;;17.45;8.30;;;;;;;0.10;93.97;97516.94;5015248;28;20052;-69
2021/01/18 02:47:47;;;;;;;;;;;;;;;-0.02;93.98;97515.41;5021012;28;20475;-70
2021/01/18 02:50:13;;;;;;;17.35;7.68;;;;;;;-0.06;94.30;97508.13;5015511;28;19913;-70
2021/01/18 02:52:40;;;;;;;16.38;8.23;;;;;;;-0.14;94.07;97512.22;5020503;28;20041;-69
2021/01/18 02:55:07;;;;;;;17.17;8.40;;;;;;;-0.08;94.06;97513.00;5020216;28;20510;-66
2021/01/18 02:57:35;;;;;;;15.23;7.47;;;;;;;-0.08;94.50;97516.47;5024361;28;20049;-67
2021/01/18 03:00:04;;;;;;;16.38;7.32;;;;;;;-0.14;94.88;97517.59;5024717;28;20368;-67
2021/01/18 03:02:44;;;;;;;15.95;8.70;;;;;;;-0.05;94.50;97515.94;5022913;28;20073;-69
2021/01/18 03:05:12;;;;;;;16.08;7.72;;;;;;;-0.02;94.69;97512.69;5019866;28;20042;-68
2021/01/18 03:08:00;;;;;;;13.57;6.80;;;;;;;-0.06;93.90;97505.44;5026353;28;20049;-70
2021/01/18 03:10:40;;;;;;;16.83;6.50;;;;;;;-0.04;94.04;97508.66;5022694;28;20045;-66
2021/01/18 03:13:25;;;;;;;;;;;;;;;-0.02;94.19;97514.56;5020395;28;20521;-65
2021/01/18 03:15:55;;;;;;;11.70;6.85;;;;;;;0.02;93.57;97512.13;5016187;28;19918;-68
2021/01/18 03:18:23;;;;;;;19.42;7.75;;;;;;;-0.02;93.80;97512.69;5017054;28;20041;-68
2021/01/18 03:20:49;;;;;;;13.20;7.53;;;;;;;-0.07;94.13;97514.63;5024226;28;20052;-67
2021/01/18 03:23:15;;;;;;;18.92;7.80;;;;;;;-0.11;94.27;97511.69;5017291;28;20049;-70
2021/01/18 03:25:48;;;;;;;15.80;7.95;;;;;;;-0.03;94.21;97516.47;5014334;28;20604;-66
2021/01/18 03:28:14;;;;;;;14.38;7.30;;;;;;;-0.07;94.29;97511.94;5018155;28;20048;-66
2021/01/18 03:30:39;;;;;;;16.88;7.25;;;;;;;-0.05;94.65;97513.25;5023725;28;20453;-68
2021/01/18 03:33:05;;;;;;;19.90;7.75;;;;;;;0.05;94.19;97515.06;5015539;28;21722;-68
2021/01/18 03:35:30;;;;;;;15.05;7.22;;;;;;;0.03;93.65;97513.75;5022108;28;20054;-68
2021/01/18 03:37:57;;;;;;;15.40;7.22;;;;;;;-0.04;93.56;97520.25;5023497;28;20073;-67
2021/01/18 03:40:24;;;;;;;15.95;7.10;;;;;;;-0.01;94.45;97513.50;5017199;28;20056;-69
2021/01/18 03:43:03;;;;;;;15.02;7.68;;;;;;;0.06;93.53;97516.69;5020932;28;20033;-68
2021/01/18 03:45:31;;;;;;;14.03;6.60;;;;;;;0.09;93.53;97510.75;5011599;28;20069;-68
2021/01/18 03:47:57;;;;;;;12.13;6.30;;;;;;;0.03;93.62;97511.06;5021959;28;20137;-70
2021/01/18 03:50:23;;;;;;;15.00;7.10;;;;;;;0.02;93.68;97515.66;5017220;28;20057;-69
2021/01/18 03:52:49;;;;;;;18.88;6.43;;;;;;;-0.02;93.93;97510.00;5021968;28;20125;-67
2021/01/18 03:55:16;;;;;;;17.20;7.40;;;;;;;-0.01;93.81;97511.59;5015644;28;20045;-67
2021/01/18 03:57:45;;;;;;;13.82;6.57;;;;;;;-0.01;93.64;97510.81;5021951;28;20052;-70
2021/01/18 04:00:11;;;;;;;13.25;8.02;;;;;;;-0.06;94.00;97508.94;5018108;28;20045;-68
2021/01/18 04:02:37;;;;;;;13.65;7.13;;;;;;;-0.03;93.96;97497.59;5003736;28;20596;-69
2021/01/18 04:05:03;;;;;;;13.45;6.60;;;;;;;-0.01;94.16;97500.03;5017784;28;20382;-63
2021/01/18 04:07:29;;;;;;;18.23;7.03;;;;;;;-0.08;93.62;97505.72;5017534;28;20038;-66
2021/01/18 04:09:54;;;;;;;17.05;7.72;;;;;;;-0.07;93.82;97503.84;5024860;28;20045;-69
2021/01/18 04:12:20;;;;;;;13.90;6.85;;;;;;;-0.10;94.24;97502.50;5015650;28;20447;-70
2021/01/18 04:14:45;;;;;;;16.95;6.90;;;;;;;-0.05;93.79;97504.38;5021425;28;20049;-65
2021/01/18 04:17:11;;;;;;;11.55;6.40;;;;;;;-0.06;93.82;97508.13;4995139;28;20041;-69
2021/01/18 04:19:36;;;;;;;16.85;7.20;;;;;;;-0.07;93.67;97511.94;5022280;28;20107;-68
2021/01/18 04:22:06;;;;;;;16.33;6.60;;;;;;;-0.07;93.41;97504.66;5027737;28;20240;-65
2021/01/18 04:24:35;;;;;;;12.48;6.43;;;;;;;-0.01;93.72;97514.28;5018242;28;20137;-67
2021/01/18 04:27:00;;;;;;;13.63;6.68;;;;;;;-0.09;93.50;97511.38;5016752;28;20045;-66
2021/01/18 04:29:27;;;;;;;13.35;6.40;;;;;;;0.00;93.18;97509.72;5016604;28;20115;-70
2021/01/18 04:31:52;;;;;;;13.43;5.97;;;;;;;-0.05;93.55;97510.56;5018089;28;20049;-70
2021/01/18 04:34:18;;;;;;;17.42;6.70;;;;;;;-0.05;92.99;97507.88;5014821;28;20041;-69
2021/01/18 04:36:43;;;;;;;12.85;6.53;;;;;;;-0.03;93.30;97512.97;5021154;28;20098;-70
2021/01/18 04:39:10;;;;;;;12.68;6.53;;;;;;;0.01;92.78;97515.91;5014181;28;20128;-70
2021/01/18 04:41:37;;;;;;;14.05;5.97;;;;;;;0.17;92.34;97520.94;5019074;28;20095;-69
2021/01/18 04:44:07;;;;;;;13.07;5.70;;;;;;;0.23;92.28;97516.31;5018235;28;20041;-63
2021/01/18 04:46:38;;;;;;;10.13;6.25;;;;;;;0.33;91.25;97513.56;5015947;28;20144;-69
2021/01/18 04:49:04;;;;;;;10.63;5.68;;;;;;;0.28;90.94;97512.78;5013085;28;20049;-64
2021/01/18 04:51:46;;;;;;;18.15;6.47;;;;;;;0.25;91.76;97516.03;5020443;28;20046;-67
2021/01/18 04:54:17;;;;;;;14.68;6.40;;;;;;;0.22;91.42;97509.31;4995229;28;20041;-68
2021/01/18 04:57:12;;;;;;;14.63;7.32;;;;;;;0.10;91.53;97514.25;5011485;28;20124;-69
2021/01/18 04:59:47;;;;;;;10.32;5.43;;;;;;;0.10;91.86;97514.25;5019377;28;20057;-67
2021/01/18 05:02:17;;;;;;;15.38;6.53;;;;;;;0.05;91.85;97509.69;5014610;28;20053;-69
2021/01/18 05:04:45;;;;;;;10.80;5.28;;;;;;;-0.01;92.67;97508.13;5013918;28;20099;-69
2021/01/18 05:07:22;;;;;;;11.25;5.68;;;;;;;0.01;92.61;97510.53;5015059;28;20073;-69
2021/01/18 05:10:05;;;;;;;9.20;5.05;;;;;;;0.02;92.56;97504.88;5021206;28;20814;-68
2021/01/18 05:12:32;;;;;;;11.05;5.53;;;;;;;-0.03;92.72;97518.34;5019267;28;20560;-70
2021/01/18 05:15:03;;;;;;;10.05;5.47;;;;;;;-0.13;93.10;97513.81;5013487;28;20168;-70
2021/01/18 05:17:41;;;;;;;9.85;5.50;;;;;;;0.01;93.16;97526.69;4994538;28;20057;-68
2021/01/18 05:20:13;;;;;;;10.02;5.97;;;;;;;-0.03;92.99;97527.25;4997917;28;20120;-69
2021/01/18 05:22:42;;;;;;;14.20;6.00;;;;;;;-0.04;92.97;97527.50;5019321;28;20037;-70
2021/01/18 05:25:08;;;;;;;14.20;6.55;;;;;;;-0.15;93.45;97537.53;5015766;28;20046;-68
2021/01/18 05:27:34;;;;;;;20.05;8.35;;;;;;;-0.03;92.95;97529.13;5017759;28;20516;-65
2021/01/18 05:29:59;;;;;;;11.98;5.72;;;;;;;0.03;93.18;97541.47;5019601;28;20197;-68
2021/01/18 05:32:26;;;;;;;13.18;5.85;;;;;;;0.01;92.48;97543.66;5018240;28;20045;-68
2021/01/18 05:34:53;;;;;;;15.23;6.30;;;;;;;-0.03;92.99;97539.91;5023132;28;20045;-71
2021/01/18 05:37:18;;;;;;;11.95;5.70;;;;;;;-0.03;92.81;97543.41;5013797;28;20064;-66
2021/01/18 05:39:44;;;;;;;10.93;6.45;;;;;;;0.09;93.13;97542.25;5021354;28;20668;-69
2021/01/18 05:42:20;;;;;;;10.63;4.93;;;;;;;0.22;92.56;97543.53;5015413;28;20404;-70
2021/01/18 05:44:46;;;;;;;15.25;5.80;;;;;;;0.08;91.89;97548.75;4984555;28;20033;-70
2021/01/18 05:47:13;;;;;;;13.13;5.38;;;;;;;0.10;92.24;97546.56;5006974;28;20188;-69
2021/01/18 05:49:41;;;;;;;12.25;5.78;;;;;;;0.02;92.29;97556.03;4965979;28;20061;-70
2021/01/18 05:52:28;;;;;;;19.42;5.90;;;;;;;-0.06;92.48;97554.72;5000227;28;20398;-68
2021/01/18 05:55:18;;;;;;;14.63;5.57;;;;;;;0.10;91.95;97558.13;5015036;28;20099;-67
2021/01/18 05:57:49;;;;;;;10.63;5.43;;;;;;;0.07;91.95;97557.88;5019274;28;20072;-67
2021/01/18 06:00:26;;;;;;;12.90;6.03;;;;;;;0.08;91.96;97559.50;4996231;28;20076;-69
2021/01/18 06:02:52;;;;;;;11.02;5.50;;;;;;;-0.05;92.30;97559.03;5013251;28;20375;-68
2021/01/18 06:05:23;;;;;;;15.18;6.05;;;;;;;-0.14;92.70;97563.38;5000556;28;20089;-66
2021/01/18 06:07:51;;;;;;;12.18;5.63;;;;;;;-0.15;92.63;97569.84;5013963;28;20076;-68
2021/01/18 06:10:17;;;;;;;13.32;5.88;;;;;;;-0.20;92.72;97570.69;4997351;28;20045;-67
2021/01/18 06:12:43;;;;;;;12.40;6.43;;;;;;;-0.25;93.45;97573.38;5016726;28;20041;-68
2021/01/18 06:15:09;;;;;;;11.98;5.60;;;;;;;-0.23;93.30;97582.00;5013093;28;20049;-69
2021/01/18 06:17:43;;;;;;;13.32;6.13;;;;;;;-0.27;93.54;97578.25;5018687;28;20055;-67
2021/01/18 06:20:09;;;;;;;14.45;6.18;;;;;;;-0.26;93.44;97582.53;5014950;28;20049;-67
2021/01/18 06:22:34;;;;;;;16.30;5.75;;;;;;;-0.25;93.77;97575.28;5020150;28;20042;-68
2021/01/18 06:25:13;;;;;;;14.73;6.30;;;;;;;-0.27;93.80;97580.09;5017311;28;20041;-67
2021/01/18 06:27:38;;;;;;;14.70;6.35;;;;;;;-0.28;93.58;97584.69;5016509;28;20068;-69
2021/01/18 06:30:05;;;;;;;14.27;5.93;;;;;;;-0.26;93.44;97590.59;5021432;28;20072;-65
2021/01/18 06:32:32;;;;;;;13.68;5.60;;;;;;;-0.28;93.40;97594.66;5016752;28;20177;-67
2021/01/18 06:35:04;;;;;;;12.52;5.63;;;;;;;-0.24;93.22;97587.66;5013657;28;20510;-68
2021/01/18 06:37:31;;;;;;;14.40;6.93;;;;;;;-0.22;93.53;97590.88;5019576;28;20041;-69
2021/01/18 06:40:02;;;;;;;13.27;5.63;;;;;;;-0.28;93.35;97590.09;5024608;28;20049;-69
2021/01/18 06:42:28;;;;;;;12.77;5.70;;;;;;;-0.22;93.66;97596.25;5018291;28;20076;-71
2021/01/18 06:44:54;;;;;;;11.45;5.88;;;;;;;-0.20;93.37;97602.16;5024233;28;20108;-70
2021/01/18 06:47:30;;;;;;;14.23;5.53;;;;;;;-0.15;93.06;97604.03;5012718;28;20451;-72
2021/01/18 06:50:01;;;;;;;14.52;6.63;;;;;;;-0.13;92.46;97601.88;5016493;28;20042;-70
2021/01/18 06:52:32;;;;;;;20.23;6.05;;;;;;;0.04;91.90;97613.13;4994692;28;20136;-71
2021/01/18 06:55:12;;;;;;;16.13;5.72;;;;;;;-0.07;91.73;97611.56;5005390;28;20050;-70
2021/01/18 06:57:46;;;;;;;15.55;5.43;;;;;;;-0.02;91.65;97600.75;5018188;28;20052;-72
2021/01/18 07:00:16;;;;;;;11.55;5.25;;;;;;;0.00;92.17;97612.06;5010229;28;20055;-69
2021/01/18 07:02:57;;;;;;;13.15;5.32;;;;;;;0.04;91.95;97615.81;5014200;28;20041;-72
2021/01/18 07:05:47;;;;;;;14.93;5.72;;;;;;;-0.04;91.75;97614.53;5016644;28;20723;-72
2021/01/18 07:08:18;;;;;;;15.13;6.05;;;;;;;0.02;91.88;97617.16;4982207;28;20414;-72
2021/01/18 07:10:48;;;;;;;12.20;6.15;;;;;;;-0.03;91.76;97620.69;5016236;28;20045;-71
2021/01/18 07:13:17;;;;;;;9.30;5.00;;;;;;;0.00;91.23;97628.25;4991512;28;20052;-68
2021/01/18 07:15:43;;;;;;;12.52;5.88;;;;;;;-0.03;91.65;97631.47;5019408;28;20123;-70
2021/01/18 07:18:11;;;;;;;14.77;5.72;;;;;;;0.00;91.46;97628.25;5019443;28;20127;-70
2021/01/18 07:20:47;;;;;;;13.68;6.20;;;;;;;0.07;91.39;97630.63;5021712;28;20041;-70
2021/01/18 07:23:15;;;;;;;12.43;6.00;;;;;;;0.04;91.34;97634.69;5012936;28;20529;-68
2021/01/18 07:25:43;;;;;;;15.40;5.18;;;;;;;0.06;91.56;97639.78;4987892;28;20054;-69
2021/01/18 07:28:13;;;;;;;12.48;5.22;;;;;;;0.18;91.10;97640.25;5003083;28;20091;-68
2021/01/18 07:30:40;;;;;;;23.90;8.30;;;;;;;0.14;91.12;97636.50;4997023;28;20106;-68
2021/01/18 07:33:12;;;;;;;16.65;6.88;;;;;;;0.08;91.37;97640.31;5022376;28;20046;-68
2021/01/18 07:35:40;;;;;;;14.40;6.10;;;;;;;0.10;91.06;97638.94;5007436;28;20038;-68
2021/01/18 07:38:13;;;;;;;15.55;5.88;;;;;;;0.12;91.21;97644.06;5021705;28;20099;-68
2021/01/18 07:40:40;;;;;;;12.98;5.80;;;;;;;0.14;90.89;97642.69;5021323;28;20103;-68
2021/01/18 07:43:06;;;;;;;11.18;4.75;;;;;;;0.06;91.21;97647.88;5018958;28;20116;-67
2021/01/18 07:45:31;;;;;;;9.13;4.85;;;;;;;0.17;90.41;97642.16;5023698;28;20045;-68
2021/01/18 07:47:57;;;;;;;13.63;5.68;;;;;;;0.13;90.83;97648.41;5024180;28;20042;-68
2021/01/18 07:50:33;;;;;;;11.88;5.03;;;;;;;0.14;90.82;97650.00;5014865;28;20572;-68
2021/01/18 07:52:59;;;;;;;10.13;5.32;;;;;;;0.15;91.37;97640.84;5025869;28;20042;-66
2021/01/18 07:55:25;;;;;;;15.98;5.97;;;;;;;0.19;90.74;97650.78;5023235;28;20059;-68
2021/01/18 07:57:51;;;;;;;10.95;5.90;;;;;;;0.13;90.86;97645.69;5022860;28;20128;-67
2021/01/18 08:00:16;;;;;;;15.95;6.30;;;;;;;0.12;90.35;97652.94;5014413;28;20129;-66
2021/01/18 08:02:41;;;;;;;12.30;5.45;;;;;;;0.23;90.81;97655.63;5018447;28;20557;-67
2021/01/18 08:05:24;;;;;;;11.75;5.45;;;;;;;0.21;90.11;97649.69;5017051;28;20040;-67
2021/01/18 08:08:13;;;;;;;13.38;6.15;;;;;;;0.35;89.89;97648.81;5024840;28;20390;-69
2021/01/18 08:11:01;;;;;;;13.63;6.53;;;;;;;0.47;89.68;97648.50;5020480;28;20099;-69
2021/01/18 08:13:41;;;;;;;13.63;5.93;;;;;;;0.59;89.26;97652.75;5001663;28;20053;-70
2021/01/18 08:16:29;;;;;;;13.40;5.22;;;;;;;0.70;88.42;97649.72;5009210;28;20443;-66
2021/01/18 08:19:22;;;;;;;13.00;5.75;;;;;;;0.90;88.76;97650.66;5016792;28;20041;-69
2021/01/18 08:21:55;;;;;;;11.55;5.60;;;;;;;1.22;86.67;97669.03;5015021;28;20949;-66
2021/01/18 08:24:23;;;;;;;14.68;5.22;;;;;;;1.25;85.90;97665.78;5016597;28;20473;-69
2021/01/18 08:26:58;;;;;;;14.25;5.82;;;;;;;1.24;85.65;97666.06;5021598;28;20402;-66
2021/01/18 08:29:36;;;;;;;16.30;5.78;;;;;;;1.07;85.66;97666.47;5021616;28;20604;-68
2021/01/18 08:32:23;;;;;;;12.50;5.28;;;;;;;1.19;85.73;97674.19;5023753;28;20049;-70
2021/01/18 08:34:59;;;;;;;12.45;6.28;;;;;;;1.29;85.25;97669.53;5020400;28;20050;-69
2021/01/18 08:37:26;;;;;;;13.60;5.38;;;;;;;1.01;86.42;97676.50;5014499;28;20303;-69
2021/01/18 08:39:56;;;;;;;10.73;5.55;;;;;;;1.05;85.99;97674.84;5020566;28;20061;-68
2021/01/18 08:42:27;;;;;;;8.60;4.78;;;;;;;1.05;85.88;97679.44;5012151;28;20493;-69
2021/01/18 08:45:08;;;;;;;8.88;4.78;;;;;;;1.00;86.14;97682.16;5010210;28;20044;-69
2021/01/18 08:47:41;;;;;;;12.88;5.32;;;;;;;0.98;86.17;97687.03;5018603;28;20046;-67
2021/01/18 08:50:46;;;;;;;10.73;4.85;;;;;;;1.10;85.78;97680.22;5014411;28;20518;-68
2021/01/18 08:53:34;;;;;;;10.85;5.35;;;;;;;1.13;85.62;97682.34;5004326;28;20049;-67
2021/01/18 08:56:02;;;;;;;12.45;4.93;;;;;;;1.19;85.37;97687.69;5017486;28;20057;-67
2021/01/18 08:58:32;;;;;;;11.82;4.80;;;;;;;1.28;85.36;97691.41;5013955;28;20054;-67
2021/01/18 09:00:59;;;;;;;9.90;4.18;;;;;;;1.56;82.99;97691.72;5015016;28;20521;-64
2021/01/18 09:03:24;;;;;;;7.90;4.65;;;;;;;1.81;83.62;97688.78;5014206;28;20582;-69
2021/01/18 09:05:55;;;;;;;8.60;4.80;;;;;;;2.26;82.51;97694.78;5008954;28;20049;-69
2021/01/18 09:08:22;;;;;;;10.23;5.00;;;;;;;1.98;80.43;97695.63;5014528;28;20045;-65
2021/01/18 09:10:55;;;;;;;9.40;5.97;;;;;;;1.78;82.04;97693.94;5022298;28;20046;-66
2021/01/18 09:13:23;;;;;;;9.68;5.25;;;;;;;1.81;82.75;97699.59;5009869;28;20502;-66
2021/01/18 09:15:50;;;;;;;13.80;5.22;;;;;;;2.16;81.19;97702.19;5019145;28;20111;-65
2021/01/18 09:18:15;;;;;;;7.88;4.75;;;;;;;2.42;80.25;97708.94;5022431;28;20585;-66
2021/01/18 09:20:42;;;;;;;7.25;4.47;;;;;;;2.52;80.12;97699.09;5033086;28;20060;-67
2021/01/18 09:23:09;;;;;;;13.35;4.47;;;;;;;2.64;78.90;97705.69;5017838;28;20501;-66
2021/01/18 09:25:37;;;;;;;8.77;4.63;;;;;;;2.68;78.82;97703.19;5021071;28;20118;-64
2021/01/18 09:28:05;;;;;;;7.57;4.80;;;;;;;2.72;79.02;97704.25;5027147;28;20041;-67
2021/01/18 09:30:30;;;;;;;11.60;4.30;;;;;;;2.73;78.57;97699.63;5020205;28;20045;-62
2021/01/18 09:33:01;;;;;;;8.52;4.25;;;;;;;2.80;79.07;97710.91;5018572;28;20486;-65
2021/01/18 09:35:28;;;;;;;12.20;4.25;;;;;;;2.92;78.20;97714.00;5008370;28;20152;-64
2021/01/18 09:37:54;;;;;;;11.68;4.50;;;;;;;2.91;77.08;97711.56;5016308;28;20041;-63
2021/01/18 09:40:20;;;;;;;10.75;4.13;;;;;;;2.99;76.87;97719.84;5013593;28;20128;-62
2021/01/18 09:42:49;;;;;;;7.82;4.15;;;;;;;2.92;77.50;97726.69;5017924;28;20470;-63
2021/01/18 09:45:15;;;;;;;11.77;4.65;;;;;;;3.00;77.11;97712.53;5018843;28;20040;-63
2021/01/18 09:47:41;;;;;;;6.43;3.97;;;;;;;3.00;77.43;97704.41;5021213;28;20037;-62
2021/01/18 09:50:08;;;;;;;10.35;4.00;;;;;;;3.04;76.94;97717.06;5014433;28;20674;-64
2021/01/18 09:52:38;;;;;;;8.88;3.95;;;;;;;3.03;76.86;97725.47;5019834;28;20088;-64
2021/01/18 09:55:09;;;;;;;9.98;4.57;;;;;;;3.02;76.65;97718.44;5015306;28;20056;-67
2021/01/18 09:57:40;;;;;;;8.38;4.13;;;;;;;3.09;76.95;97720.78;5016577;28;20069;-65
2021/01/18 10:00:08;;;;;;;7.43;3.97;;;;;;;3.19;77.37;97721.44;5014546;28;20468;-64
2021/01/18 10:02:40;;;;;;;11.15;4.32;;;;;;;3.26;76.98;97718.38;5014895;28;20146;-64
2021/01/18 10:05:06;;;;;;;7.25;3.50;;;;;;;3.32;76.41;97714.50;5014900;28;20717;-62
2021/01/18 10:07:34;;;;;;;8.85;4.05;;;;;;;3.27;76.03;97724.59;5020851;28;20107;-62
2021/01/18 10:10:00;;;;;;;6.88;4.10;;;;;;;3.31;76.49;97710.16;5010637;28;20427;-62
2021/01/18 10:12:29;;;;;;;8.40;3.35;;;;;;;3.27;75.62;97711.06;5013895;28;20068;-65
2021/01/18 10:14:55;;;;;;;7.72;3.97;;;;;;;2.94;76.77;97709.09;4999950;28;20054;-66
2021/01/18 10:17:29;;;;;;;6.30;3.75;;;;;;;2.56;77.75;97719.88;5003562;28;20096;-62
2021/01/18 10:20:07;;;;;;;7.57;4.30;;;;;;;2.70;78.06;97711.81;5016721;28;20041;-64
2021/01/18 10:22:36;;;;;;;6.55;3.22;;;;;;;2.20;79.44;97705.97;5019095;28;20072;-64
2021/01/18 10:25:08;;;;;;;6.90;3.85;;;;;;;2.31;78.84;97715.56;5018799;28;20043;-67
2021/01/18 10:27:34;;;;;;;7.90;3.35;;;;;;;2.56;78.54;97717.16;5003549;28;20057;-64
2021/01/18 10:30:08;;;;;;;7.20;3.53;;;;;;;2.84;78.72;97714.63;5019734;28;20042;-64
2021/01/18 10:32:45;;;;;;;6.35;3.60;;;;;;;2.81;77.95;97712.50;5017223;28;20437;-64
2021/01/18 10:35:30;;;;;;;10.85;3.78;;;;;;;2.62;78.27;97710.59;5011930;28;20084;-64
2021/01/18 10:38:14;;;;;;;7.75;4.28;;;;;;;2.19;79.37;97707.03;5018071;28;20044;-61
2021/01/18 10:40:43;;;;;;;9.55;4.13;;;;;;;2.35;79.26;97711.19;5020484;28;20041;-66
2021/01/18 10:43:11;;;;;;;7.50;4.13;;;;;;;2.29;79.32;97713.13;5013981;28;20042;-66
2021/01/18 10:45:41;;;;;;;8.02;4.13;;;;;;;2.54;79.59;97711.25;5021250;28;20132;-66
2021/01/18 10:48:07;;;;;;;5.88;3.25;;;;;;;2.65;78.01;97703.81;5015088;28;20530;-64
2021/01/18 10:50:32;;;;;;;8.75;4.43;;;;;;;2.68;78.09;97706.72;5020138;28;20038;-62
2021/01/18 10:53:04;;;;;;;6.07;3.63;;;;;;;2.79;76.61;97706.56;5019437;28;20076;-63
2021/01/18 10:55:29;;;;;;;7.63;3.95;;;;;;;2.74;76.91;97702.06;5019707;28;20044;-64
2021/01/18 10:57:55;;;;;;;7.35;3.92;;;;;;;2.74;76.68;97695.81;5020118;28;20049;-62
2021/01/18 11:00:22;;;;;;;9.27;3.55;;;;;;;2.53;77.42;97695.28;5015256;28;20646;-64
2021/01/18 11:03:01;;;;;;;12.43;4.32;;;;;;;2.59;77.76;97686.84;5031629;28;20179;-65
2021/01/18 11:05:30;;;;;;;14.15;4.13;;;;;;;2.68;77.83;97686.97;5015157;28;20050;-65
2021/01/18 11:07:58;;;;;;;10.82;3.70;;;;;;;2.43;78.82;97683.50;5020751;28;20041;-67
2021/01/18 11:10:24;;;;;;;7.30;3.35;;;;;;;2.01;80.18;97684.25;5012722;28;20427;-66
2021/01/18 11:12:59;;;;;;;7.47;3.72;;;;;;;2.00;80.25;97677.22;5019946;28;20040;-66
2021/01/18 11:15:30;;;;;;;8.48;4.65;;;;;;;2.25;79.96;97674.28;5017760;28;20049;-66
2021/01/18 11:17:55;;;;;;;12.38;5.60;;;;;;;2.18;79.49;97670.28;5023921;28;20095;-63
2021/01/18 11:20:29;;;;;;;7.35;4.25;;;;;;;2.34;79.75;97668.22;5019341;28;20582;-63
2021/01/18 11:22:54;;;;;;;5.63;3.50;;;;;;;2.09;79.61;97670.94;5023970;28;20049;-65
2021/01/18 11:25:20;;;;;;;6.72;3.70;;;;;;;2.27;80.23;97658.56;5017382;28;20041;-63
2021/01/18 11:27:46;;;;;;;7.75;3.75;;;;;;;2.34;79.25;97654.69;5022302;28;20498;-65
2021/01/18 11:30:13;;;;;;;9.65;5.05;;;;;;;1.87;80.10;97651.72;5018203;28;20517;-66
2021/01/18 11:32:39;;;;;;;7.75;4.50;;;;;;;1.81;81.53;97644.75;5013300;28;20037;-65
2021/01/18 11:35:05;;;;;;;11.40;3.78;;;;;;;1.87;80.83;97639.03;5018024;28;20077;-64
2021/01/18 11:37:33;;;;;;;8.63;4.70;;;;;;;1.67;81.66;97640.03;5022392;28;20053;-64
2021/01/18 11:39:58;;;;;;;7.80;4.03;;;;;;;1.68;82.90;97633.53;5023769;28;20045;-64
2021/01/18 11:42:24;;;;;;;12.48;3.40;;;;;;;1.41;82.79;97639.47;5017711;28;20049;-63
2021/01/18 11:44:49;;;;;;;9.68;4.03;;;;;;;1.62;81.31;97641.97;5030649;28;20041;-63